Atlantis — PCDT — position and weather

sailwx.info

Track history (hours):
 
Tides and Currents Weather Stations Pressure Air Temp Water Temp Dewpoint Dewpoint Depression Visibility Wind Speed Wind Dir Waves Ship Positions

Atlantis (Netherlands)

Ship's website: http://www.tallship-company.com/artemis/gb_atlantis.htm

Last reported at 2016-Jul-28 00:33 UTC. Time now 2016-Jul-28 00:59 UTC.
Position N 39°20' E 002°59'.

Length 40 m; draft 4.5 m.

Type: Sailing vessel. MMSI: 246253000.

Date/timePositionNaut miles runAvg speedWind from/ knotsBaromVisibWave heightAir tempDewpointWater temp
2016-Jul-28 00:33N 39°20' E 002°59'0 0.0
2016-Jul-27 23:33N 39°20' E 002°59'0 0.0
2016-Jul-27 22:33N 39°20' E 002°59'0 0.0
2016-Jul-27 21:33N 39°20' E 002°59'0 0.0
2016-Jul-27 20:27N 39°20' E 002°59'0 0.0
2016-Jul-27 19:33N 39°20' E 002°59'0 0.0
2016-Jul-27 18:27N 39°20' E 002°59'0 0.0
2016-Jul-27 17:30N 39°20' E 002°59'0 0.0
2016-Jul-27 16:30N 39°20' E 002°59'2 2.1
2016-Jul-27 15:33N 39°18' E 002°60'5 4.7
2016-Jul-27 14:33N 39°15' E 003°04'6 4.6
2016-Jul-27 13:15N 39°19' E 003°10'31 0.7
2016-Jul-25 15:10N 39°48' E 003°25'2 2.8
2016-Jul-25 14:21N 39°50' E 003°23'3 2.7
2016-Jul-25 13:21N 39°52' E 003°21'2 2.5
2016-Jul-25 12:33N 39°53' E 003°19'20 1.0
2016-Jul-24 16:28N 39°54' E 002°53'4 4.4
2016-Jul-24 15:33N 39°52' E 002°49'5 4.8
2016-Jul-24 14:33N 39°50' E 002°43'5 4.6
2016-Jul-24 13:33N 39°47' E 002°39'0 0.2
2016-Jul-24 12:33N 39°47' E 002°38'0 0.1
2016-Jul-24 11:33N 39°47' E 002°38'3 2.5
2016-Jul-24 10:33N 39°48' E 002°42'0 0.0
2016-Jul-24 09:30N 39°48' E 002°42'0 0.0
2016-Jul-24 08:33N 39°48' E 002°42'0 0.0
2016-Jul-24 07:30N 39°48' E 002°42'0 0.0
2016-Jul-24 06:33N 39°48' E 002°42'0 0.0
2016-Jul-24 05:33N 39°48' E 002°42'0 0.0
2016-Jul-24 04:33N 39°48' E 002°42'0 0.0
2016-Jul-24 03:24N 39°48' E 002°42'0 0.0
2016-Jul-24 02:27N 39°48' E 002°42'0 0.0
2016-Jul-24 01:33N 39°48' E 002°42'0 0.0
2016-Jul-24 00:33N 39°48' E 002°42'0 0.0
2016-Jul-23 23:30N 39°48' E 002°42'0 0.0
2016-Jul-23 22:30N 39°48' E 002°42'0 0.0
2016-Jul-23 21:33N 39°48' E 002°42'0 0.0
2016-Jul-23 20:33N 39°48' E 002°42'0 0.0
2016-Jul-23 19:33N 39°48' E 002°42'0 0.0
2016-Jul-23 18:30N 39°48' E 002°42'0 0.0
2016-Jul-23 17:24N 39°48' E 002°42'0 0.0
2016-Jul-23 16:30N 39°48' E 002°42'0 0.0
2016-Jul-23 15:33N 39°48' E 002°42'0 0.0
2016-Jul-23 14:30N 39°48' E 002°42'0 0.0
2016-Jul-23 13:33N 39°48' E 002°42'0 0.3
2016-Jul-23 12:33N 39°48' E 002°41'5 4.8
2016-Jul-23 11:33N 39°45' E 002°36'7 6.5
2016-Jul-23 10:33N 39°41' E 002°29'6 6.0
2016-Jul-23 09:33N 39°38' E 002°23'10 2.1
2016-Jul-23 04:33N 39°30' E 002°14'7 7.0
2016-Jul-23 03:33N 39°25' E 002°08'7 7.0
2016-Jul-23 02:33N 39°20' E 002°02'7 6.9
2016-Jul-23 01:33N 39°15' E 001°56'6 6.0
2016-Jul-23 00:33N 39°10' E 001°50'5 5.1
2016-Jul-22 23:33N 39°06' E 001°46'124 6.4
2016-Jul-22 04:13N 37°44' W 000°13'5 7.6
2016-Jul-22 03:31N 37°41' W 000°18'9 7.8
2016-Jul-22 02:23N 37°35' W 000°26'7 7.9
2016-Jul-22 01:32N 37°31' W 000°33'8 8.1
2016-Jul-22 00:33N 37°26' W 000°41'9 8.2
2016-Jul-21 23:26N 37°21' W 000°50'225 8.0
2016-Jul-20 19:11N 36°00' W 005°13'4 7.1
2016-Jul-20 18:33N 35°59' W 005°18'  
Track history (hours):
 
Tides and Currents Weather Stations Pressure Air Temp Water Temp Dewpoint Dewpoint Depression Visibility Wind Speed Wind Dir Waves Ship Positions

Atlantis (Netherlands)

Ship's website: http://www.tallship-company.com/artemis/gb_atlantis.htm

Last reported at 2016-Jul-28 00:33 UTC. Time now 2016-Jul-28 00:59 UTC.
Position N 39°20' E 002°59'.

Length 40 m; draft 4.5 m.

Type: Sailing vessel. MMSI: 246253000.

Date/timePositionNaut miles runAvg speedWind from/ knotsBaromVisibWave heightAir tempDewpointWater temp
2016-Jul-28 00:33N 39°20' E 002°59'0 0.0
2016-Jul-27 23:33N 39°20' E 002°59'0 0.0
2016-Jul-27 22:33N 39°20' E 002°59'0 0.0
2016-Jul-27 21:33N 39°20' E 002°59'0 0.0
2016-Jul-27 20:27N 39°20' E 002°59'0 0.0
2016-Jul-27 19:33N 39°20' E 002°59'0 0.0
2016-Jul-27 18:27N 39°20' E 002°59'0 0.0
2016-Jul-27 17:30N 39°20' E 002°59'0 0.0
2016-Jul-27 16:30N 39°20' E 002°59'2 2.1
2016-Jul-27 15:33N 39°18' E 002°60'5 4.7
2016-Jul-27 14:33N 39°15' E 003°04'6 4.6
2016-Jul-27 13:15N 39°19' E 003°10'31 0.7
2016-Jul-25 15:10N 39°48' E 003°25'2 2.8
2016-Jul-25 14:21N 39°50' E 003°23'3 2.7
2016-Jul-25 13:21N 39°52' E 003°21'2 2.5
2016-Jul-25 12:33N 39°53' E 003°19'20 1.0
2016-Jul-24 16:28N 39°54' E 002°53'4 4.4
2016-Jul-24 15:33N 39°52' E 002°49'5 4.8
2016-Jul-24 14:33N 39°50' E 002°43'5 4.6
2016-Jul-24 13:33N 39°47' E 002°39'0 0.2
2016-Jul-24 12:33N 39°47' E 002°38'0 0.1
2016-Jul-24 11:33N 39°47' E 002°38'3 2.5
2016-Jul-24 10:33N 39°48' E 002°42'0 0.0
2016-Jul-24 09:30N 39°48' E 002°42'0 0.0
2016-Jul-24 08:33N 39°48' E 002°42'0 0.0
2016-Jul-24 07:30N 39°48' E 002°42'0 0.0
2016-Jul-24 06:33N 39°48' E 002°42'0 0.0
2016-Jul-24 05:33N 39°48' E 002°42'0 0.0
2016-Jul-24 04:33N 39°48' E 002°42'0 0.0
2016-Jul-24 03:24N 39°48' E 002°42'0 0.0
2016-Jul-24 02:27N 39°48' E 002°42'0 0.0
2016-Jul-24 01:33N 39°48' E 002°42'0 0.0
2016-Jul-24 00:33N 39°48' E 002°42'0 0.0
2016-Jul-23 23:30N 39°48' E 002°42'0 0.0
2016-Jul-23 22:30N 39°48' E 002°42'0 0.0
2016-Jul-23 21:33N 39°48' E 002°42'0 0.0
2016-Jul-23 20:33N 39°48' E 002°42'0 0.0
2016-Jul-23 19:33N 39°48' E 002°42'0 0.0
2016-Jul-23 18:30N 39°48' E 002°42'0 0.0
2016-Jul-23 17:24N 39°48' E 002°42'0 0.0
2016-Jul-23 16:30N 39°48' E 002°42'0 0.0
2016-Jul-23 15:33N 39°48' E 002°42'0 0.0
2016-Jul-23 14:30N 39°48' E 002°42'0 0.0
2016-Jul-23 13:33N 39°48' E 002°42'0 0.3
2016-Jul-23 12:33N 39°48' E 002°41'5 4.8
2016-Jul-23 11:33N 39°45' E 002°36'7 6.5
2016-Jul-23 10:33N 39°41' E 002°29'6 6.0
2016-Jul-23 09:33N 39°38' E 002°23'10 2.1
2016-Jul-23 04:33N 39°30' E 002°14'7 7.0
2016-Jul-23 03:33N 39°25' E 002°08'7 7.0
2016-Jul-23 02:33N 39°20' E 002°02'7 6.9
2016-Jul-23 01:33N 39°15' E 001°56'6 6.0
2016-Jul-23 00:33N 39°10' E 001°50'5 5.1
2016-Jul-22 23:33N 39°06' E 001°46'124 6.4
2016-Jul-22 04:13N 37°44' W 000°13'5 7.6
2016-Jul-22 03:31N 37°41' W 000°18'9 7.8
2016-Jul-22 02:23N 37°35' W 000°26'7 7.9
2016-Jul-22 01:32N 37°31' W 000°33'8 8.1
2016-Jul-22 00:33N 37°26' W 000°41'9 8.2
2016-Jul-21 23:26N 37°21' W 000°50'225 8.0
2016-Jul-20 19:11N 36°00' W 005°13'4 7.1
2016-Jul-20 18:33N 35°59' W 005°18'  

Dump ship's entire track history